sensor_id;sensor_type;location;lat;lon;timestamp;P1;durP1;ratioP1;P2;durP2;ratioP2
60494;SDS011;46342;49.046;11.920;2022-11-15T00:00:23;7.53;;;4.45;;
60494;SDS011;46342;49.046;11.920;2022-11-15T00:02:49;5.25;;;3.67;;
60494;SDS011;46342;49.046;11.920;2022-11-15T00:05:14;3.97;;;3.10;;
60494;SDS011;46342;49.046;11.920;2022-11-15T00:07:40;3.83;;;3.03;;
60494;SDS011;46342;49.046;11.920;2022-11-15T00:10:06;4.53;;;3.00;;
60494;SDS011;46342;49.046;11.920;2022-11-15T00:12:32;4.53;;;3.25;;
60494;SDS011;46342;49.046;11.920;2022-11-15T00:14:57;4.40;;;3.25;;
60494;SDS011;46342;49.046;11.920;2022-11-15T00:17:23;5.88;;;3.10;;
60494;SDS011;46342;49.046;11.920;2022-11-15T00:19:48;4.18;;;3.00;;
60494;SDS011;46342;49.046;11.920;2022-11-15T00:22:14;5.25;;;3.60;;
60494;SDS011;46342;49.046;11.920;2022-11-15T00:24:40;5.57;;;4.03;;
60494;SDS011;46342;49.046;11.920;2022-11-15T00:27:05;6.20;;;3.83;;
60494;SDS011;46342;49.046;11.920;2022-11-15T00:29:31;4.90;;;3.47;;
60494;SDS011;46342;49.046;11.920;2022-11-15T00:31:56;5.57;;;3.47;;
60494;SDS011;46342;49.046;11.920;2022-11-15T00:34:22;5.57;;;3.70;;
60494;SDS011;46342;49.046;11.920;2022-11-15T00:36:47;4.88;;;3.67;;
60494;SDS011;46342;49.046;11.920;2022-11-15T00:39:13;6.03;;;3.70;;
60494;SDS011;46342;49.046;11.920;2022-11-15T00:41:38;5.32;;;3.67;;
60494;SDS011;46342;49.046;11.920;2022-11-15T00:44:04;4.40;;;3.30;;
60494;SDS011;46342;49.046;11.920;2022-11-15T00:46:29;5.43;;;3.72;;
60494;SDS011;46342;49.046;11.920;2022-11-15T00:48:55;5.22;;;3.33;;
60494;SDS011;46342;49.046;11.920;2022-11-15T00:51:21;3.92;;;3.10;;
60494;SDS011;46342;49.046;11.920;2022-11-15T00:53:46;5.10;;;3.75;;
60494;SDS011;46342;49.046;11.920;2022-11-15T00:56:12;4.40;;;3.00;;
60494;SDS011;46342;49.046;11.920;2022-11-15T00:58:37;5.60;;;3.40;;
60494;SDS011;46342;49.046;11.920;2022-11-15T01:01:07;4.30;;;3.40;;
60494;SDS011;46342;49.046;11.920;2022-11-15T01:03:34;5.07;;;3.72;;
60494;SDS011;46342;49.046;11.920;2022-11-15T01:06:00;3.75;;;2.88;;
60494;SDS011;46342;49.046;11.920;2022-11-15T01:08:26;3.70;;;3.10;;
60494;SDS011;46342;49.046;11.920;2022-11-15T01:10:52;4.78;;;3.42;;
60494;SDS011;46342;49.046;11.920;2022-11-15T01:13:17;4.82;;;3.33;;
60494;SDS011;46342;49.046;11.920;2022-11-15T01:15:43;3.85;;;2.97;;
60494;SDS011;46342;49.046;11.920;2022-11-15T01:18:08;4.85;;;3.60;;
60494;SDS011;46342;49.046;11.920;2022-11-15T01:20:34;5.60;;;3.63;;
60494;SDS011;46342;49.046;11.920;2022-11-15T01:23:05;3.97;;;3.05;;
60494;SDS011;46342;49.046;11.920;2022-11-15T01:25:30;4.70;;;3.00;;
60494;SDS011;46342;49.046;11.920;2022-11-15T01:27:56;3.83;;;2.85;;
60494;SDS011;46342;49.046;11.920;2022-11-15T01:30:22;4.95;;;3.17;;
60494;SDS011;46342;49.046;11.920;2022-11-15T01:32:47;4.53;;;3.17;;
60494;SDS011;46342;49.046;11.920;2022-11-15T01:35:13;4.18;;;3.03;;
60494;SDS011;46342;49.046;11.920;2022-11-15T01:37:38;5.40;;;3.42;;
60494;SDS011;46342;49.046;11.920;2022-11-15T01:40:04;5.70;;;3.40;;
60494;SDS011;46342;49.046;11.920;2022-11-15T01:42:30;6.32;;;3.58;;
60494;SDS011;46342;49.046;11.920;2022-11-15T01:44:55;5.70;;;3.83;;
60494;SDS011;46342;49.046;11.920;2022-11-15T01:47:23;4.95;;;3.63;;
60494;SDS011;46342;49.046;11.920;2022-11-15T01:50:02;4.47;;;3.88;;
60494;SDS011;46342;49.046;11.920;2022-11-15T01:52:30;5.32;;;3.75;;
60494;SDS011;46342;49.046;11.920;2022-11-15T01:59:52;5.00;;;3.92;;
60494;SDS011;46342;49.046;11.920;2022-11-15T02:02:17;4.50;;;3.20;;
60494;SDS011;46342;49.046;11.920;2022-11-15T02:04:44;8.05;;;3.80;;
60494;SDS011;46342;49.046;11.920;2022-11-15T02:07:12;6.30;;;3.58;;
60494;SDS011;46342;49.046;11.920;2022-11-15T02:09:40;4.15;;;3.00;;
60494;SDS011;46342;49.046;11.920;2022-11-15T02:12:07;4.35;;;3.03;;
60494;SDS011;46342;49.046;11.920;2022-11-15T02:14:35;5.32;;;3.00;;
60494;SDS011;46342;49.046;11.920;2022-11-15T02:17:24;3.65;;;2.90;;
60494;SDS011;46342;49.046;11.920;2022-11-15T02:29:11;4.07;;;2.78;;
60494;SDS011;46342;49.046;11.920;2022-11-15T02:31:42;3.75;;;2.75;;
60494;SDS011;46342;49.046;11.920;2022-11-15T02:37:00;5.82;;;3.15;;
60494;SDS011;46342;49.046;11.920;2022-11-15T02:42:17;3.72;;;2.92;;
60494;SDS011;46342;49.046;11.920;2022-11-15T02:45:05;5.68;;;3.47;;
60494;SDS011;46342;49.046;11.920;2022-11-15T02:47:37;4.53;;;2.67;;
60494;SDS011;46342;49.046;11.920;2022-11-15T02:50:09;5.90;;;3.20;;
60494;SDS011;46342;49.046;11.920;2022-11-15T02:52:36;3.22;;;2.80;;
60494;SDS011;46342;49.046;11.920;2022-11-15T02:55:02;3.85;;;3.00;;
60494;SDS011;46342;49.046;11.920;2022-11-15T03:00:15;4.38;;;3.20;;
60494;SDS011;46342;49.046;11.920;2022-11-15T03:03:01;3.90;;;3.08;;
60494;SDS011;46342;49.046;11.920;2022-11-15T03:06:01;5.03;;;3.10;;
60494;SDS011;46342;49.046;11.920;2022-11-15T03:08:55;4.43;;;2.80;;
60494;SDS011;46342;49.046;11.920;2022-11-15T03:11:37;4.00;;;2.97;;
60494;SDS011;46342;49.046;11.920;2022-11-15T03:14:16;5.43;;;3.33;;
60494;SDS011;46342;49.046;11.920;2022-11-15T03:19:31;4.13;;;3.10;;
60494;SDS011;46342;49.046;11.920;2022-11-15T03:22:03;3.78;;;3.05;;
60494;SDS011;46342;49.046;11.920;2022-11-15T03:24:33;3.90;;;3.22;;
60494;SDS011;46342;49.046;11.920;2022-11-15T03:27:02;4.45;;;3.05;;
60494;SDS011;46342;49.046;11.920;2022-11-15T03:29:32;4.85;;;3.10;;
60494;SDS011;46342;49.046;11.920;2022-11-15T03:32:09;4.50;;;3.30;;
60494;SDS011;46342;49.046;11.920;2022-11-15T03:34:49;5.28;;;3.50;;
60494;SDS011;46342;49.046;11.920;2022-11-15T03:37:21;7.63;;;3.60;;
60494;SDS011;46342;49.046;11.920;2022-11-15T03:39:49;6.07;;;3.67;;
60494;SDS011;46342;49.046;11.920;2022-11-15T03:42:30;5.80;;;4.03;;
60494;SDS011;46342;49.046;11.920;2022-11-15T03:45:10;5.78;;;4.38;;
60494;SDS011;46342;49.046;11.920;2022-11-15T03:50:11;4.75;;;3.78;;
60494;SDS011;46342;49.046;11.920;2022-11-15T03:52:39;4.13;;;3.10;;
60494;SDS011;46342;49.046;11.920;2022-11-15T03:55:07;6.95;;;3.90;;
60494;SDS011;46342;49.046;11.920;2022-11-15T03:57:35;6.32;;;3.92;;
60494;SDS011;46342;49.046;11.920;2022-11-15T04:00:02;5.68;;;3.90;;
60494;SDS011;46342;49.046;11.920;2022-11-15T04:02:29;4.88;;;3.53;;
60494;SDS011;46342;49.046;11.920;2022-11-15T04:04:54;4.82;;;3.30;;
60494;SDS011;46342;49.046;11.920;2022-11-15T04:07:20;4.43;;;3.20;;
60494;SDS011;46342;49.046;11.920;2022-11-15T04:09:45;5.72;;;3.92;;
60494;SDS011;46342;49.046;11.920;2022-11-15T04:12:31;5.03;;;3.13;;
60494;SDS011;46342;49.046;11.920;2022-11-15T04:15:07;4.47;;;3.35;;
60494;SDS011;46342;49.046;11.920;2022-11-15T04:20:11;4.80;;;3.33;;
60494;SDS011;46342;49.046;11.920;2022-11-15T04:23:04;4.93;;;3.60;;
60494;SDS011;46342;49.046;11.920;2022-11-15T04:25:51;3.70;;;3.10;;
60494;SDS011;46342;49.046;11.920;2022-11-15T04:28:18;4.80;;;3.78;;
60494;SDS011;46342;49.046;11.920;2022-11-15T04:30:44;4.35;;;3.30;;
60494;SDS011;46342;49.046;11.920;2022-11-15T04:33:10;4.00;;;3.28;;
60494;SDS011;46342;49.046;11.920;2022-11-15T04:35:35;4.35;;;3.67;;
60494;SDS011;46342;49.046;11.920;2022-11-15T04:38:02;4.88;;;3.70;;
60494;SDS011;46342;49.046;11.920;2022-11-15T04:40:28;5.05;;;3.75;;
60494;SDS011;46342;49.046;11.920;2022-11-15T04:42:54;4.28;;;3.58;;
60494;SDS011;46342;49.046;11.920;2022-11-15T04:45:20;5.43;;;3.80;;
60494;SDS011;46342;49.046;11.920;2022-11-15T04:47:46;6.10;;;3.45;;
60494;SDS011;46342;49.046;11.920;2022-11-15T04:50:12;6.10;;;3.55;;
60494;SDS011;46342;49.046;11.920;2022-11-15T04:52:40;5.32;;;4.18;;
60494;SDS011;46342;49.046;11.920;2022-11-15T04:55:07;5.38;;;4.13;;
60494;SDS011;46342;49.046;11.920;2022-11-15T04:57:34;4.20;;;3.35;;
60494;SDS011;46342;49.046;11.920;2022-11-15T05:00:00;4.35;;;3.17;;
60494;SDS011;46342;49.046;11.920;2022-11-15T05:02:26;5.43;;;3.70;;
60494;SDS011;46342;49.046;11.920;2022-11-15T05:05:11;5.07;;;3.05;;
60494;SDS011;46342;49.046;11.920;2022-11-15T05:07:37;4.10;;;3.28;;
60494;SDS011;46342;49.046;11.920;2022-11-15T05:10:02;4.07;;;3.33;;
60494;SDS011;46342;49.046;11.920;2022-11-15T05:12:28;4.75;;;3.63;;
60494;SDS011;46342;49.046;11.920;2022-11-15T05:14:54;6.22;;;3.75;;
60494;SDS011;46342;49.046;11.920;2022-11-15T05:17:19;7.40;;;3.72;;
60494;SDS011;46342;49.046;11.920;2022-11-15T05:19:45;8.27;;;5.32;;
60494;SDS011;46342;49.046;11.920;2022-11-15T05:22:10;8.50;;;6.07;;
60494;SDS011;46342;49.046;11.920;2022-11-15T05:24:36;6.35;;;4.90;;
60494;SDS011;46342;49.046;11.920;2022-11-15T05:27:01;7.32;;;4.85;;
60494;SDS011;46342;49.046;11.920;2022-11-15T05:29:27;5.53;;;4.90;;
60494;SDS011;46342;49.046;11.920;2022-11-15T05:31:52;6.45;;;4.60;;
60494;SDS011;46342;49.046;11.920;2022-11-15T05:34:18;5.82;;;4.47;;
60494;SDS011;46342;49.046;11.920;2022-11-15T05:36:44;5.10;;;4.25;;
60494;SDS011;46342;49.046;11.920;2022-11-15T05:39:10;6.45;;;4.47;;
60494;SDS011;46342;49.046;11.920;2022-11-15T05:41:40;6.68;;;4.50;;
60494;SDS011;46342;49.046;11.920;2022-11-15T05:44:15;6.10;;;4.40;;
60494;SDS011;46342;49.046;11.920;2022-11-15T05:46:44;4.38;;;3.47;;
60494;SDS011;46342;49.046;11.920;2022-11-15T05:49:12;5.28;;;4.05;;
60494;SDS011;46342;49.046;11.920;2022-11-15T05:51:41;5.97;;;3.88;;
60494;SDS011;46342;49.046;11.920;2022-11-15T05:54:09;6.28;;;3.60;;
60494;SDS011;46342;49.046;11.920;2022-11-15T05:56:36;4.45;;;3.42;;
60494;SDS011;46342;49.046;11.920;2022-11-15T05:59:02;5.35;;;3.83;;
60494;SDS011;46342;49.046;11.920;2022-11-15T06:01:28;4.45;;;3.40;;
60494;SDS011;46342;49.046;11.920;2022-11-15T06:03:55;4.68;;;3.15;;
60494;SDS011;46342;49.046;11.920;2022-11-15T06:06:20;5.97;;;4.80;;
60494;SDS011;46342;49.046;11.920;2022-11-15T06:08:46;5.97;;;4.50;;
60494;SDS011;46342;49.046;11.920;2022-11-15T06:11:12;5.55;;;4.40;;
60494;SDS011;46342;49.046;11.920;2022-11-15T06:13:38;6.35;;;4.35;;
60494;SDS011;46342;49.046;11.920;2022-11-15T06:16:04;15.43;;;10.85;;
60494;SDS011;46342;49.046;11.920;2022-11-15T06:18:33;9.35;;;6.93;;
60494;SDS011;46342;49.046;11.920;2022-11-15T06:21:00;7.57;;;4.68;;
60494;SDS011;46342;49.046;11.920;2022-11-15T06:23:26;6.38;;;4.40;;
60494;SDS011;46342;49.046;11.920;2022-11-15T06:25:52;6.00;;;4.28;;
60494;SDS011;46342;49.046;11.920;2022-11-15T06:28:17;6.15;;;4.22;;
60494;SDS011;46342;49.046;11.920;2022-11-15T06:30:43;6.53;;;4.15;;
60494;SDS011;46342;49.046;11.920;2022-11-15T06:33:08;6.93;;;4.30;;
60494;SDS011;46342;49.046;11.920;2022-11-15T06:35:34;5.80;;;3.83;;
60494;SDS011;46342;49.046;11.920;2022-11-15T06:38:07;5.18;;;3.88;;
60494;SDS011;46342;49.046;11.920;2022-11-15T06:40:35;8.90;;;5.43;;
60494;SDS011;46342;49.046;11.920;2022-11-15T06:43:01;6.07;;;3.95;;
60494;SDS011;46342;49.046;11.920;2022-11-15T06:45:28;5.32;;;4.22;;
60494;SDS011;46342;49.046;11.920;2022-11-15T06:47:54;6.10;;;3.88;;
60494;SDS011;46342;49.046;11.920;2022-11-15T06:50:19;5.32;;;3.75;;
60494;SDS011;46342;49.046;11.920;2022-11-15T06:52:45;5.65;;;4.03;;
60494;SDS011;46342;49.046;11.920;2022-11-15T06:55:11;10.98;;;6.70;;
60494;SDS011;46342;49.046;11.920;2022-11-15T06:57:36;13.60;;;8.90;;
60494;SDS011;46342;49.046;11.920;2022-11-15T07:00:05;16.60;;;9.73;;
60494;SDS011;46342;49.046;11.920;2022-11-15T07:02:31;9.57;;;5.97;;
60494;SDS011;46342;49.046;11.920;2022-11-15T07:04:57;10.00;;;6.28;;
60494;SDS011;46342;49.046;11.920;2022-11-15T07:07:22;7.57;;;5.47;;
60494;SDS011;46342;49.046;11.920;2022-11-15T07:09:48;6.95;;;5.25;;
60494;SDS011;46342;49.046;11.920;2022-11-15T07:12:14;6.20;;;3.90;;
60494;SDS011;46342;49.046;11.920;2022-11-15T07:14:39;6.00;;;4.30;;
60494;SDS011;46342;49.046;11.920;2022-11-15T07:17:05;6.20;;;4.32;;
60494;SDS011;46342;49.046;11.920;2022-11-15T07:19:31;5.28;;;4.32;;
60494;SDS011;46342;49.046;11.920;2022-11-15T07:21:56;5.38;;;4.15;;
60494;SDS011;46342;49.046;11.920;2022-11-15T07:24:22;5.38;;;4.20;;
60494;SDS011;46342;49.046;11.920;2022-11-15T07:26:48;6.38;;;4.32;;
60494;SDS011;46342;49.046;11.920;2022-11-15T07:29:13;6.07;;;4.25;;
60494;SDS011;46342;49.046;11.920;2022-11-15T07:31:39;7.22;;;4.45;;
60494;SDS011;46342;49.046;11.920;2022-11-15T07:34:04;6.43;;;4.65;;
60494;SDS011;46342;49.046;11.920;2022-11-15T07:36:30;4.30;;;3.58;;
60494;SDS011;46342;49.046;11.920;2022-11-15T07:38:56;5.00;;;3.85;;
60494;SDS011;46342;49.046;11.920;2022-11-15T07:41:21;4.35;;;3.50;;
60494;SDS011;46342;49.046;11.920;2022-11-15T07:43:47;6.43;;;3.95;;
60494;SDS011;46342;49.046;11.920;2022-11-15T07:46:15;4.60;;;3.80;;
60494;SDS011;46342;49.046;11.920;2022-11-15T07:48:41;6.43;;;4.45;;
60494;SDS011;46342;49.046;11.920;2022-11-15T07:51:06;5.70;;;4.00;;
60494;SDS011;46342;49.046;11.920;2022-11-15T07:53:35;5.47;;;3.72;;
60494;SDS011;46342;49.046;11.920;2022-11-15T07:56:00;5.70;;;4.32;;
60494;SDS011;46342;49.046;11.920;2022-11-15T07:58:26;5.72;;;4.10;;
60494;SDS011;46342;49.046;11.920;2022-11-15T08:00:51;5.50;;;4.03;;
60494;SDS011;46342;49.046;11.920;2022-11-15T08:03:17;10.98;;;6.85;;
60494;SDS011;46342;49.046;11.920;2022-11-15T08:05:42;10.07;;;5.35;;
60494;SDS011;46342;49.046;11.920;2022-11-15T08:08:09;6.05;;;4.45;;
60494;SDS011;46342;49.046;11.920;2022-11-15T08:10:36;5.88;;;3.97;;
60494;SDS011;46342;49.046;11.920;2022-11-15T08:13:03;6.95;;;4.05;;
60494;SDS011;46342;49.046;11.920;2022-11-15T08:15:31;4.68;;;3.65;;
60494;SDS011;46342;49.046;11.920;2022-11-15T08:17:57;4.35;;;3.42;;
60494;SDS011;46342;49.046;11.920;2022-11-15T08:20:26;6.70;;;4.47;;
60494;SDS011;46342;49.046;11.920;2022-11-15T08:22:55;5.32;;;4.43;;
60494;SDS011;46342;49.046;11.920;2022-11-15T08:25:24;4.68;;;3.63;;
60494;SDS011;46342;49.046;11.920;2022-11-15T08:27:55;6.78;;;4.68;;
60494;SDS011;46342;49.046;11.920;2022-11-15T08:30:22;6.10;;;4.47;;
60494;SDS011;46342;49.046;11.920;2022-11-15T08:32:49;9.02;;;5.80;;
60494;SDS011;46342;49.046;11.920;2022-11-15T08:35:15;6.13;;;4.43;;
60494;SDS011;46342;49.046;11.920;2022-11-15T08:37:41;4.68;;;3.25;;
60494;SDS011;46342;49.046;11.920;2022-11-15T08:40:07;4.88;;;3.53;;
60494;SDS011;46342;49.046;11.920;2022-11-15T08:42:33;5.55;;;3.85;;
60494;SDS011;46342;49.046;11.920;2022-11-15T08:44:59;6.35;;;4.18;;
60494;SDS011;46342;49.046;11.920;2022-11-15T08:47:24;5.35;;;3.60;;
60494;SDS011;46342;49.046;11.920;2022-11-15T08:49:50;6.32;;;3.80;;
60494;SDS011;46342;49.046;11.920;2022-11-15T08:52:15;5.03;;;3.75;;
60494;SDS011;46342;49.046;11.920;2022-11-15T08:54:41;6.72;;;4.05;;
60494;SDS011;46342;49.046;11.920;2022-11-15T08:57:07;5.90;;;4.40;;
60494;SDS011;46342;49.046;11.920;2022-11-15T08:59:34;4.60;;;3.72;;
60494;SDS011;46342;49.046;11.920;2022-11-15T09:02:00;6.30;;;4.22;;
60494;SDS011;46342;49.046;11.920;2022-11-15T09:04:26;6.95;;;4.22;;
60494;SDS011;46342;49.046;11.920;2022-11-15T09:06:52;6.20;;;4.18;;
60494;SDS011;46342;49.046;11.920;2022-11-15T09:09:17;5.55;;;4.03;;
60494;SDS011;46342;49.046;11.920;2022-11-15T09:11:43;4.80;;;4.00;;
60494;SDS011;46342;49.046;11.920;2022-11-15T09:14:10;6.88;;;4.35;;
60494;SDS011;46342;49.046;11.920;2022-11-15T09:16:39;6.72;;;4.10;;
60494;SDS011;46342;49.046;11.920;2022-11-15T09:19:05;7.15;;;4.38;;
60494;SDS011;46342;49.046;11.920;2022-11-15T09:21:31;6.13;;;4.53;;
60494;SDS011;46342;49.046;11.920;2022-11-15T09:23:57;5.57;;;4.00;;
60494;SDS011;46342;49.046;11.920;2022-11-15T09:26:22;8.43;;;4.90;;
60494;SDS011;46342;49.046;11.920;2022-11-15T09:28:48;6.70;;;4.68;;
60494;SDS011;46342;49.046;11.920;2022-11-15T09:31:14;7.97;;;5.75;;
60494;SDS011;46342;49.046;11.920;2022-11-15T09:33:39;10.88;;;5.07;;
60494;SDS011;46342;49.046;11.920;2022-11-15T09:36:07;6.68;;;4.43;;
60494;SDS011;46342;49.046;11.920;2022-11-15T09:38:34;6.15;;;4.20;;
60494;SDS011;46342;49.046;11.920;2022-11-15T09:49:13;6.20;;;4.20;;
60494;SDS011;46342;49.046;11.920;2022-11-15T09:51:41;5.85;;;4.28;;
60494;SDS011;46342;49.046;11.920;2022-11-15T09:56:45;6.70;;;4.18;;
60494;SDS011;46342;49.046;11.920;2022-11-15T10:02:19;6.72;;;4.90;;
60494;SDS011;46342;49.046;11.920;2022-11-15T10:05:03;5.72;;;4.30;;
60494;SDS011;46342;49.046;11.920;2022-11-15T10:10:15;7.10;;;5.00;;
60494;SDS011;46342;49.046;11.920;2022-11-15T10:13:02;5.60;;;4.47;;
60494;SDS011;46342;49.046;11.920;2022-11-15T10:15:29;6.53;;;4.10;;
60494;SDS011;46342;49.046;11.920;2022-11-15T10:20:48;8.10;;;5.18;;
60494;SDS011;46342;49.046;11.920;2022-11-15T10:23:21;10.02;;;4.75;;
60494;SDS011;46342;49.046;11.920;2022-11-15T10:25:50;7.15;;;4.82;;
60494;SDS011;46342;49.046;11.920;2022-11-15T10:30:50;6.40;;;5.03;;
60494;SDS011;46342;49.046;11.920;2022-11-15T10:35:42;11.38;;;6.32;;
60494;SDS011;46342;49.046;11.920;2022-11-15T10:38:09;6.50;;;4.63;;
60494;SDS011;46342;49.046;11.920;2022-11-15T10:40:36;5.65;;;4.47;;
60494;SDS011;46342;49.046;11.920;2022-11-15T10:43:05;5.45;;;4.50;;
60494;SDS011;46342;49.046;11.920;2022-11-15T10:45:33;7.88;;;4.80;;
60494;SDS011;46342;49.046;11.920;2022-11-15T10:50:37;9.50;;;4.95;;
60494;SDS011;46342;49.046;11.920;2022-11-15T10:56:02;6.50;;;4.47;;
60494;SDS011;46342;49.046;11.920;2022-11-15T11:01:08;7.47;;;5.05;;
60494;SDS011;46342;49.046;11.920;2022-11-15T11:03:40;6.57;;;4.78;;
60494;SDS011;46342;49.046;11.920;2022-11-15T11:06:11;7.07;;;5.03;;
60494;SDS011;46342;49.046;11.920;2022-11-15T11:08:39;7.18;;;5.47;;
60494;SDS011;46342;49.046;11.920;2022-11-15T11:11:06;6.82;;;4.53;;
60494;SDS011;46342;49.046;11.920;2022-11-15T11:13:34;6.13;;;4.75;;
60494;SDS011;46342;49.046;11.920;2022-11-15T11:27:21;8.00;;;5.25;;
60494;SDS011;46342;49.046;11.920;2022-11-15T11:32:55;6.22;;;4.80;;
60494;SDS011;46342;49.046;11.920;2022-11-15T11:35:35;6.78;;;5.15;;
60494;SDS011;46342;49.046;11.920;2022-11-15T11:38:17;6.43;;;5.07;;
60494;SDS011;46342;49.046;11.920;2022-11-15T11:41:07;7.20;;;5.07;;
60494;SDS011;46342;49.046;11.920;2022-11-15T11:43:52;7.43;;;5.38;;
60494;SDS011;46342;49.046;11.920;2022-11-15T11:51:58;7.28;;;4.75;;
60494;SDS011;46342;49.046;11.920;2022-11-15T11:54:37;7.72;;;5.25;;
60494;SDS011;46342;49.046;11.920;2022-11-15T11:57:07;8.10;;;5.20;;
60494;SDS011;46342;49.046;11.920;2022-11-15T11:59:53;6.50;;;4.60;;
60494;SDS011;46342;49.046;11.920;2022-11-15T12:02:31;12.93;;;9.80;;
60494;SDS011;46342;49.046;11.920;2022-11-15T12:05:04;9.02;;;5.55;;
60494;SDS011;46342;49.046;11.920;2022-11-15T12:07:54;8.30;;;5.32;;
60494;SDS011;46342;49.046;11.920;2022-11-15T12:10:28;7.28;;;5.22;;
60494;SDS011;46342;49.046;11.920;2022-11-15T12:13:04;8.20;;;5.65;;
60494;SDS011;46342;49.046;11.920;2022-11-15T12:15:50;6.60;;;4.75;;
60494;SDS011;46342;49.046;11.920;2022-11-15T12:18:21;7.85;;;5.30;;
60494;SDS011;46342;49.046;11.920;2022-11-15T12:21:08;5.18;;;4.28;;
60494;SDS011;46342;49.046;11.920;2022-11-15T12:24:03;7.05;;;4.32;;
60494;SDS011;46342;49.046;11.920;2022-11-15T12:26:35;6.20;;;4.38;;
60494;SDS011;46342;49.046;11.920;2022-11-15T12:29:09;4.75;;;4.10;;
60494;SDS011;46342;49.046;11.920;2022-11-15T12:31:42;7.28;;;4.78;;
60494;SDS011;46342;49.046;11.920;2022-11-15T12:36:45;6.07;;;4.47;;
60494;SDS011;46342;49.046;11.920;2022-11-15T12:39:13;5.38;;;4.10;;
60494;SDS011;46342;49.046;11.920;2022-11-15T12:44:10;5.22;;;4.30;;
60494;SDS011;46342;49.046;11.920;2022-11-15T12:52:03;4.97;;;3.90;;
60494;SDS011;46342;49.046;11.920;2022-11-15T12:57:22;6.95;;;4.10;;
60494;SDS011;46342;49.046;11.920;2022-11-15T13:02:32;5.63;;;4.10;;
60494;SDS011;46342;49.046;11.920;2022-11-15T13:08:09;4.97;;;3.58;;
60494;SDS011;46342;49.046;11.920;2022-11-15T13:14:37;5.75;;;4.13;;
60494;SDS011;46342;49.046;11.920;2022-11-15T13:17:16;5.40;;;4.10;;
60494;SDS011;46342;49.046;11.920;2022-11-15T13:19:57;5.30;;;3.75;;
60494;SDS011;46342;49.046;11.920;2022-11-15T13:22:27;5.25;;;3.60;;
60494;SDS011;46342;49.046;11.920;2022-11-15T13:27:52;3.58;;;3.03;;
60494;SDS011;46342;49.046;11.920;2022-11-15T13:30:20;4.80;;;3.40;;
60494;SDS011;46342;49.046;11.920;2022-11-15T13:32:48;3.25;;;2.95;;
60494;SDS011;46342;49.046;11.920;2022-11-15T13:35:18;5.45;;;3.83;;
60494;SDS011;46342;49.046;11.920;2022-11-15T13:37:47;3.65;;;3.10;;
60494;SDS011;46342;49.046;11.920;2022-11-15T13:40:26;4.53;;;3.45;;
60494;SDS011;46342;49.046;11.920;2022-11-15T13:42:55;3.50;;;3.00;;
60494;SDS011;46342;49.046;11.920;2022-11-15T13:45:22;5.47;;;3.22;;
60494;SDS011;46342;49.046;11.920;2022-11-15T13:47:53;4.10;;;3.25;;
60494;SDS011;46342;49.046;11.920;2022-11-15T13:50:21;3.63;;;3.20;;
60494;SDS011;46342;49.046;11.920;2022-11-15T13:52:57;3.72;;;2.92;;
60494;SDS011;46342;49.046;11.920;2022-11-15T13:55:25;3.88;;;2.80;;
60494;SDS011;46342;49.046;11.920;2022-11-15T13:57:53;4.78;;;3.33;;
60494;SDS011;46342;49.046;11.920;2022-11-15T14:03:07;4.10;;;2.65;;
60494;SDS011;46342;49.046;11.920;2022-11-15T14:06:05;3.88;;;2.83;;
60494;SDS011;46342;49.046;11.920;2022-11-15T14:08:35;3.53;;;2.63;;
60494;SDS011;46342;49.046;11.920;2022-11-15T14:11:14;3.05;;;2.50;;
60494;SDS011;46342;49.046;11.920;2022-11-15T14:13:42;4.43;;;2.90;;
60494;SDS011;46342;49.046;11.920;2022-11-15T14:16:36;4.15;;;3.40;;
60494;SDS011;46342;49.046;11.920;2022-11-15T14:19:08;4.03;;;2.70;;
60494;SDS011;46342;49.046;11.920;2022-11-15T14:21:36;4.13;;;3.08;;
60494;SDS011;46342;49.046;11.920;2022-11-15T14:24:18;3.75;;;2.92;;
60494;SDS011;46342;49.046;11.920;2022-11-15T14:26:45;4.72;;;3.20;;
60494;SDS011;46342;49.046;11.920;2022-11-15T14:29:27;4.63;;;2.90;;
60494;SDS011;46342;49.046;11.920;2022-11-15T14:31:55;5.05;;;3.03;;
60494;SDS011;46342;49.046;11.920;2022-11-15T14:35:00;4.00;;;2.75;;
60494;SDS011;46342;49.046;11.920;2022-11-15T14:37:31;4.30;;;3.08;;
60494;SDS011;46342;49.046;11.920;2022-11-15T14:39:59;4.75;;;2.88;;
60494;SDS011;46342;49.046;11.920;2022-11-15T14:42:29;4.03;;;2.78;;
60494;SDS011;46342;49.046;11.920;2022-11-15T14:44:55;4.80;;;3.22;;
60494;SDS011;46342;49.046;11.920;2022-11-15T14:47:21;4.55;;;3.03;;
60494;SDS011;46342;49.046;11.920;2022-11-15T14:49:46;3.30;;;2.67;;
60494;SDS011;46342;49.046;11.920;2022-11-15T14:52:26;5.72;;;3.28;;
60494;SDS011;46342;49.046;11.920;2022-11-15T14:54:53;5.57;;;4.07;;
60494;SDS011;46342;49.046;11.920;2022-11-15T14:57:20;9.07;;;5.03;;
60494;SDS011;46342;49.046;11.920;2022-11-15T14:59:46;11.30;;;7.40;;
60494;SDS011;46342;49.046;11.920;2022-11-15T15:02:24;12.20;;;7.72;;
60494;SDS011;46342;49.046;11.920;2022-11-15T15:04:51;15.75;;;7.95;;
60494;SDS011;46342;49.046;11.920;2022-11-15T15:07:18;12.77;;;7.72;;
60494;SDS011;46342;49.046;11.920;2022-11-15T15:09:43;13.52;;;8.38;;
60494;SDS011;46342;49.046;11.920;2022-11-15T15:12:17;13.18;;;8.50;;
60494;SDS011;46342;49.046;11.920;2022-11-15T15:14:48;14.65;;;8.95;;
60494;SDS011;46342;49.046;11.920;2022-11-15T15:17:14;10.55;;;6.80;;
60494;SDS011;46342;49.046;11.920;2022-11-15T15:19:41;13.57;;;8.20;;
60494;SDS011;46342;49.046;11.920;2022-11-15T15:22:17;8.93;;;6.40;;
60494;SDS011;46342;49.046;11.920;2022-11-15T15:24:44;8.77;;;5.88;;
60494;SDS011;46342;49.046;11.920;2022-11-15T15:27:10;7.03;;;5.60;;
60494;SDS011;46342;49.046;11.920;2022-11-15T15:29:37;8.20;;;4.88;;
60494;SDS011;46342;49.046;11.920;2022-11-15T15:32:03;7.05;;;4.47;;
60494;SDS011;46342;49.046;11.920;2022-11-15T15:34:29;6.55;;;4.28;;
60494;SDS011;46342;49.046;11.920;2022-11-15T15:39:51;7.00;;;4.43;;
60494;SDS011;46342;49.046;11.920;2022-11-15T15:42:19;6.28;;;4.43;;
60494;SDS011;46342;49.046;11.920;2022-11-15T15:44:45;8.93;;;5.07;;
60494;SDS011;46342;49.046;11.920;2022-11-15T15:47:12;6.80;;;5.00;;
60494;SDS011;46342;49.046;11.920;2022-11-15T15:49:40;5.93;;;4.50;;
60494;SDS011;46342;49.046;11.920;2022-11-15T15:52:06;9.98;;;5.82;;
60494;SDS011;46342;49.046;11.920;2022-11-15T15:54:31;8.57;;;5.53;;
60494;SDS011;46342;49.046;11.920;2022-11-15T15:56:57;8.90;;;5.63;;
60494;SDS011;46342;49.046;11.920;2022-11-15T15:59:22;8.27;;;5.35;;
60494;SDS011;46342;49.046;11.920;2022-11-15T16:01:48;6.95;;;5.13;;
60494;SDS011;46342;49.046;11.920;2022-11-15T16:04:13;6.75;;;4.50;;
60494;SDS011;46342;49.046;11.920;2022-11-15T16:06:39;5.65;;;4.07;;
60494;SDS011;46342;49.046;11.920;2022-11-15T16:09:13;6.75;;;4.53;;
60494;SDS011;46342;49.046;11.920;2022-11-15T16:11:40;9.60;;;5.65;;
60494;SDS011;46342;49.046;11.920;2022-11-15T16:14:06;7.65;;;5.50;;
60494;SDS011;46342;49.046;11.920;2022-11-15T16:16:33;8.75;;;5.78;;
60494;SDS011;46342;49.046;11.920;2022-11-15T16:18:59;6.68;;;5.25;;
60494;SDS011;46342;49.046;11.920;2022-11-15T16:21:25;8.25;;;5.68;;
60494;SDS011;46342;49.046;11.920;2022-11-15T16:23:52;7.43;;;5.45;;
60494;SDS011;46342;49.046;11.920;2022-11-15T16:26:21;8.48;;;6.05;;
60494;SDS011;46342;49.046;11.920;2022-11-15T16:28:53;8.38;;;6.13;;
60494;SDS011;46342;49.046;11.920;2022-11-15T16:31:18;9.00;;;6.03;;
60494;SDS011;46342;49.046;11.920;2022-11-15T16:33:47;7.57;;;5.35;;
60494;SDS011;46342;49.046;11.920;2022-11-15T16:36:20;6.63;;;5.20;;
60494;SDS011;46342;49.046;11.920;2022-11-15T16:38:47;8.07;;;5.28;;